sensor_id;sensor_type;location;lat;lon;timestamp;pressure;altitude;pressure_sealevel;temperature;humidity
71344;BME280;59146;43.850;25.948;2023-02-10T00:00:04;103569.53;;;-5.36;69.74
71344;BME280;59146;43.850;25.948;2023-02-10T00:02:30;103529.97;;;-5.61;69.60
71344;BME280;59146;43.850;25.948;2023-02-10T00:04:55;103612.47;;;-5.27;69.84
71344;BME280;59146;43.850;25.948;2023-02-10T00:07:21;103562.19;;;-5.78;70.36
71344;BME280;59146;43.850;25.948;2023-02-10T00:09:48;103596.19;;;-5.61;70.71
71344;BME280;59146;43.850;25.948;2023-02-10T00:12:13;103611.81;;;-5.39;70.76
71344;BME280;59146;43.850;25.948;2023-02-10T00:14:39;103586.34;;;-5.23;69.76
71344;BME280;59146;43.850;25.948;2023-02-10T00:17:04;103544.91;;;-5.68;70.04
71344;BME280;59146;43.850;25.948;2023-02-10T00:19:30;103558.31;;;-5.39;69.72
71344;BME280;59146;43.850;25.948;2023-02-10T00:21:59;103537.13;;;-5.71;70.26
71344;BME280;59146;43.850;25.948;2023-02-10T00:24:25;103535.22;;;-5.58;69.97
71344;BME280;59146;43.850;25.948;2023-02-10T00:26:52;103571.13;;;-5.70;70.30
71344;BME280;59146;43.850;25.948;2023-02-10T00:29:17;103578.13;;;-5.97;71.65
71344;BME280;59146;43.850;25.948;2023-02-10T00:31:43;103527.00;;;-6.01;70.62
71344;BME280;59146;43.850;25.948;2023-02-10T00:34:14;103543.13;;;-6.01;70.91
71344;BME280;59146;43.850;25.948;2023-02-10T00:36:40;103552.59;;;-5.98;69.95
71344;BME280;59146;43.850;25.948;2023-02-10T00:39:06;103569.50;;;-6.15;70.84
71344;BME280;59146;43.850;25.948;2023-02-10T00:41:32;103571.72;;;-5.90;70.32
71344;BME280;59146;43.850;25.948;2023-02-10T00:43:57;103482.09;;;-6.46;69.90
71344;BME280;59146;43.850;25.948;2023-02-10T00:46:23;103581.78;;;-6.08;70.17
71344;BME280;59146;43.850;25.948;2023-02-10T00:48:49;103532.34;;;-6.42;70.17
71344;BME280;59146;43.850;25.948;2023-02-10T00:51:15;103459.19;;;-6.91;70.50
71344;BME280;59146;43.850;25.948;2023-02-10T00:53:41;103559.88;;;-6.35;70.60
71344;BME280;59146;43.850;25.948;2023-02-10T00:56:07;103569.50;;;-6.15;70.64
71344;BME280;59146;43.850;25.948;2023-02-10T00:58:33;103596.78;;;-6.12;71.25
71344;BME280;59146;43.850;25.948;2023-02-10T01:00:59;103576.78;;;-6.06;71.42
71344;BME280;59146;43.850;25.948;2023-02-10T01:03:24;103491.34;;;-6.77;72.00
71344;BME280;59146;43.850;25.948;2023-02-10T01:05:50;103555.75;;;-6.33;71.59
71344;BME280;59146;43.850;25.948;2023-02-10T01:08:16;103398.66;;;-7.28;71.73
71344;BME280;59146;43.850;25.948;2023-02-10T01:10:41;103554.25;;;-6.29;71.73
71344;BME280;59146;43.850;25.948;2023-02-10T01:13:08;103559.50;;;-6.12;71.44
71344;BME280;59146;43.850;25.948;2023-02-10T01:15:34;103514.22;;;-6.17;69.97
71344;BME280;59146;43.850;25.948;2023-02-10T01:17:59;103373.31;;;-6.97;69.90
71344;BME280;59146;43.850;25.948;2023-02-10T01:20:25;103497.34;;;-6.31;70.14
71344;BME280;59146;43.850;25.948;2023-02-10T01:22:51;103545.97;;;-6.11;70.16
71344;BME280;59146;43.850;25.948;2023-02-10T01:25:16;103543.69;;;-6.06;70.39
71344;BME280;59146;43.850;25.948;2023-02-10T01:27:42;103560.94;;;-6.01;70.42
71344;BME280;59146;43.850;25.948;2023-02-10T01:30:07;103558.91;;;-5.92;70.71
71344;BME280;59146;43.850;25.948;2023-02-10T01:32:33;103529.13;;;-6.09;70.58
71344;BME280;59146;43.850;25.948;2023-02-10T01:34:58;103529.75;;;-6.13;70.88
71344;BME280;59146;43.850;25.948;2023-02-10T01:37:24;103552.06;;;-5.93;70.77
71344;BME280;59146;43.850;25.948;2023-02-10T01:39:49;103514.19;;;-6.03;70.84
71344;BME280;59146;43.850;25.948;2023-02-10T01:42:15;103528.81;;;-5.99;70.91
71344;BME280;59146;43.850;25.948;2023-02-10T01:47:06;103559.72;;;-5.77;70.92
71344;BME280;59146;43.850;25.948;2023-02-10T01:49:36;103530.13;;;-5.91;70.75
71344;BME280;59146;43.850;25.948;2023-02-10T01:52:06;103557.63;;;-5.53;70.83
71344;BME280;59146;43.850;25.948;2023-02-10T01:54:39;103480.44;;;-6.15;70.50
71344;BME280;59146;43.850;25.948;2023-02-10T01:57:06;103517.56;;;-5.88;70.15
71344;BME280;59146;43.850;25.948;2023-02-10T01:59:34;103546.19;;;-5.76;70.34
71344;BME280;59146;43.850;25.948;2023-02-10T02:02:01;103527.19;;;-6.13;70.38
71344;BME280;59146;43.850;25.948;2023-02-10T02:04:38;103375.25;;;-7.22;70.03
71344;BME280;59146;43.850;25.948;2023-02-10T02:07:06;103531.19;;;-6.47;70.79
71344;BME280;59146;43.850;25.948;2023-02-10T02:09:31;103476.25;;;-6.74;70.44
71344;BME280;59146;43.850;25.948;2023-02-10T02:14:40;103559.84;;;-6.06;68.52
71344;BME280;59146;43.850;25.948;2023-02-10T02:28:45;103557.44;;;-6.77;69.97
71344;BME280;59146;43.850;25.948;2023-02-10T02:31:55;103544.88;;;-6.60;69.84
71344;BME280;59146;43.850;25.948;2023-02-10T02:34:38;103545.00;;;-6.58;69.58
71344;BME280;59146;43.850;25.948;2023-02-10T02:37:10;103417.72;;;-7.49;69.55
71344;BME280;59146;43.850;25.948;2023-02-10T02:39:37;103471.97;;;-7.19;70.13
71344;BME280;59146;43.850;25.948;2023-02-10T02:42:19;103539.56;;;-6.93;71.21
71344;BME280;59146;43.850;25.948;2023-02-10T02:44:47;103514.03;;;-7.09;71.10
71344;BME280;59146;43.850;25.948;2023-02-10T02:47:18;103529.56;;;-6.76;70.54
71344;BME280;59146;43.850;25.948;2023-02-10T02:55:23;103493.81;;;-6.93;69.90
71344;BME280;59146;43.850;25.948;2023-02-10T02:57:57;103443.56;;;-7.12;69.47
71344;BME280;59146;43.850;25.948;2023-02-10T03:00:29;103529.03;;;-6.70;69.45
71344;BME280;59146;43.850;25.948;2023-02-10T03:02:55;103447.59;;;-7.30;68.99
71344;BME280;59146;43.850;25.948;2023-02-10T03:05:23;103507.56;;;-7.04;68.78
71344;BME280;59146;43.850;25.948;2023-02-10T03:07:54;103518.38;;;-7.21;69.42
71344;BME280;59146;43.850;25.948;2023-02-10T03:10:19;103434.78;;;-7.61;69.70
71344;BME280;59146;43.850;25.948;2023-02-10T03:12:46;103518.81;;;-7.29;69.66
71344;BME280;59146;43.850;25.948;2023-02-10T03:15:12;103433.31;;;-7.85;70.50
71344;BME280;59146;43.850;25.948;2023-02-10T03:17:38;103519.78;;;-7.12;70.26
71344;BME280;59146;43.850;25.948;2023-02-10T03:20:03;103466.56;;;-7.53;69.54
71344;BME280;59146;43.850;25.948;2023-02-10T03:22:29;103504.06;;;-7.49;69.57
71344;BME280;59146;43.850;25.948;2023-02-10T03:24:54;103461.38;;;-7.69;69.81
71344;BME280;59146;43.850;25.948;2023-02-10T03:27:20;103452.88;;;-7.69;70.00
71344;BME280;59146;43.850;25.948;2023-02-10T03:29:45;103443.66;;;-7.82;70.40
71344;BME280;59146;43.850;25.948;2023-02-10T03:32:13;103498.00;;;-7.23;70.26
71344;BME280;59146;43.850;25.948;2023-02-10T03:34:39;103422.47;;;-7.55;69.98
71344;BME280;59146;43.850;25.948;2023-02-10T03:37:04;103521.63;;;-7.09;69.91
71344;BME280;59146;43.850;25.948;2023-02-10T03:39:32;103494.16;;;-7.16;70.01
71344;BME280;59146;43.850;25.948;2023-02-10T03:41:57;103426.97;;;-7.64;70.24
71344;BME280;59146;43.850;25.948;2023-02-10T03:44:23;103490.63;;;-7.33;70.24
71344;BME280;59146;43.850;25.948;2023-02-10T03:46:48;103440.16;;;-7.56;70.12
71344;BME280;59146;43.850;25.948;2023-02-10T03:49:13;103488.84;;;-7.34;70.18
71344;BME280;59146;43.850;25.948;2023-02-10T03:51:39;103500.41;;;-7.24;69.86
71344;BME280;59146;43.850;25.948;2023-02-10T03:54:04;103477.88;;;-7.48;70.00
71344;BME280;59146;43.850;25.948;2023-02-10T03:56:30;103445.47;;;-7.52;69.25
71344;BME280;59146;43.850;25.948;2023-02-10T03:58:55;103499.00;;;-7.34;69.71
71344;BME280;59146;43.850;25.948;2023-02-10T04:01:20;103460.63;;;-7.39;69.98
71344;BME280;59146;43.850;25.948;2023-02-10T04:03:46;103448.75;;;-7.40;70.16
71344;BME280;59146;43.850;25.948;2023-02-10T04:06:12;103409.41;;;-7.61;70.54
71344;BME280;59146;43.850;25.948;2023-02-10T04:08:38;103449.25;;;-7.31;70.47
71344;BME280;59146;43.850;25.948;2023-02-10T04:11:04;103500.97;;;-7.01;70.34
71344;BME280;59146;43.850;25.948;2023-02-10T04:13:30;103449.72;;;-7.23;70.13
71344;BME280;59146;43.850;25.948;2023-02-10T04:16:11;103430.44;;;-7.49;70.71
71344;BME280;59146;43.850;25.948;2023-02-10T04:18:37;103310.88;;;-8.10;71.18
71344;BME280;59146;43.850;25.948;2023-02-10T04:21:04;103425.44;;;-7.33;71.39
71344;BME280;59146;43.850;25.948;2023-02-10T04:23:31;103404.06;;;-7.51;71.69
71344;BME280;59146;43.850;25.948;2023-02-10T04:25:57;103498.00;;;-7.08;71.67
71344;BME280;59146;43.850;25.948;2023-02-10T04:28:23;103350.53;;;-7.83;71.71
71344;BME280;59146;43.850;25.948;2023-02-10T04:30:52;103379.44;;;-7.66;71.51
71344;BME280;59146;43.850;25.948;2023-02-10T04:33:18;103450.00;;;-7.33;71.58
71344;BME280;59146;43.850;25.948;2023-02-10T04:35:43;103406.69;;;-7.49;71.15
71344;BME280;59146;43.850;25.948;2023-02-10T04:38:10;103400.16;;;-7.46;70.61
71344;BME280;59146;43.850;25.948;2023-02-10T04:40:36;103453.84;;;-7.25;70.84
71344;BME280;59146;43.850;25.948;2023-02-10T04:43:01;103451.13;;;-7.13;69.94
71344;BME280;59146;43.850;25.948;2023-02-10T04:45:27;103467.16;;;-7.14;70.02
71344;BME280;59146;43.850;25.948;2023-02-10T04:47:52;103406.53;;;-7.38;69.75
71344;BME280;59146;43.850;25.948;2023-02-10T04:50:18;103401.34;;;-7.54;69.91
71344;BME280;59146;43.850;25.948;2023-02-10T04:52:43;103447.66;;;-7.43;70.36
71344;BME280;59146;43.850;25.948;2023-02-10T04:55:08;103463.53;;;-7.33;70.58
71344;BME280;59146;43.850;25.948;2023-02-10T04:57:34;103366.00;;;-7.93;70.25
71344;BME280;59146;43.850;25.948;2023-02-10T04:59:59;103438.25;;;-7.46;70.89
71344;BME280;59146;43.850;25.948;2023-02-10T05:02:25;103405.97;;;-7.61;70.71
71344;BME280;59146;43.850;25.948;2023-02-10T05:04:50;103352.28;;;-7.96;70.87
71344;BME280;59146;43.850;25.948;2023-02-10T05:07:15;103461.91;;;-7.17;71.03
71344;BME280;59146;43.850;25.948;2023-02-10T05:09:41;103464.69;;;-7.28;70.33
71344;BME280;59146;43.850;25.948;2023-02-10T05:12:06;103381.88;;;-7.82;70.26
71344;BME280;59146;43.850;25.948;2023-02-10T05:14:32;103478.16;;;-7.29;69.79
71344;BME280;59146;43.850;25.948;2023-02-10T05:16:57;103418.31;;;-7.67;70.84
71344;BME280;59146;43.850;25.948;2023-02-10T05:19:22;103413.31;;;-7.66;70.79
71344;BME280;59146;43.850;25.948;2023-02-10T05:21:48;103444.69;;;-7.51;71.29
71344;BME280;59146;43.850;25.948;2023-02-10T05:24:13;103411.94;;;-7.61;70.98
71344;BME280;59146;43.850;25.948;2023-02-10T05:26:39;103435.25;;;-7.39;70.53
71344;BME280;59146;43.850;25.948;2023-02-10T05:29:04;103427.19;;;-7.46;70.28
71344;BME280;59146;43.850;25.948;2023-02-10T05:31:29;103479.75;;;-7.31;70.67
71344;BME280;59146;43.850;25.948;2023-02-10T05:33:55;103453.38;;;-7.33;70.89
71344;BME280;59146;43.850;25.948;2023-02-10T05:36:21;103435.69;;;-7.46;70.82
71344;BME280;59146;43.850;25.948;2023-02-10T05:38:46;103455.56;;;-7.24;70.97
71344;BME280;59146;43.850;25.948;2023-02-10T05:41:30;103403.03;;;-7.25;70.82
71344;BME280;59146;43.850;25.948;2023-02-10T05:43:56;103455.22;;;-6.86;69.73
71344;BME280;59146;43.850;25.948;2023-02-10T05:46:21;103482.22;;;-6.88;69.98
71344;BME280;59146;43.850;25.948;2023-02-10T05:48:46;103471.53;;;-7.12;70.58
71344;BME280;59146;43.850;25.948;2023-02-10T05:51:12;103434.22;;;-7.13;70.25
71344;BME280;59146;43.850;25.948;2023-02-10T05:53:37;103429.22;;;-7.11;70.69
71344;BME280;59146;43.850;25.948;2023-02-10T05:56:03;103421.09;;;-6.91;70.42
71344;BME280;59146;43.850;25.948;2023-02-10T05:58:28;103455.63;;;-6.19;68.01
71344;BME280;59146;43.850;25.948;2023-02-10T06:00:58;103430.81;;;-5.75;65.25
71344;BME280;59146;43.850;25.948;2023-02-10T06:03:23;103514.34;;;-5.19;64.02
71344;BME280;59146;43.850;25.948;2023-02-10T06:05:49;103481.75;;;-4.75;61.75
71344;BME280;59146;43.850;25.948;2023-02-10T06:08:14;103464.03;;;-4.54;60.16
71344;BME280;59146;43.850;25.948;2023-02-10T06:10:39;103513.69;;;-4.13;58.92
71344;BME280;59146;43.850;25.948;2023-02-10T06:13:05;103460.72;;;-4.36;58.34
71344;BME280;59146;43.850;25.948;2023-02-10T06:15:30;103439.19;;;-4.41;57.71
71344;BME280;59146;43.850;25.948;2023-02-10T06:17:56;103500.91;;;-3.95;57.83
71344;BME280;59146;43.850;25.948;2023-02-10T06:20:21;103511.56;;;-3.67;57.33
71344;BME280;59146;43.850;25.948;2023-02-10T06:22:46;103459.72;;;-4.03;56.93
71344;BME280;59146;43.850;25.948;2023-02-10T06:25:12;103494.16;;;-3.56;56.34
71344;BME280;59146;43.850;25.948;2023-02-10T06:27:37;103492.81;;;-3.48;56.24
71344;BME280;59146;43.850;25.948;2023-02-10T06:30:03;103474.03;;;-3.87;56.88
71344;BME280;59146;43.850;25.948;2023-02-10T06:32:28;103454.94;;;-3.76;56.69
71344;BME280;59146;43.850;25.948;2023-02-10T06:34:54;103419.91;;;-3.97;56.05
71344;BME280;59146;43.850;25.948;2023-02-10T06:37:19;103453.69;;;-3.85;56.39
71344;BME280;59146;43.850;25.948;2023-02-10T06:39:45;103523.28;;;-3.14;55.22
71344;BME280;59146;43.850;25.948;2023-02-10T06:42:10;103447.34;;;-3.74;55.56
71344;BME280;59146;43.850;25.948;2023-02-10T06:44:35;103449.44;;;-3.47;55.49
71344;BME280;59146;43.850;25.948;2023-02-10T06:47:01;103482.59;;;-3.48;55.61
71344;BME280;59146;43.850;25.948;2023-02-10T06:49:26;103507.94;;;-3.34;55.77
71344;BME280;59146;43.850;25.948;2023-02-10T06:51:52;103420.44;;;-3.66;55.65
71344;BME280;59146;43.850;25.948;2023-02-10T06:54:17;103471.69;;;-3.44;55.80
71344;BME280;59146;43.850;25.948;2023-02-10T06:56:43;103527.34;;;-2.99;55.78
71344;BME280;59146;43.850;25.948;2023-02-10T06:59:11;103526.81;;;-2.51;54.67
71344;BME280;59146;43.850;25.948;2023-02-10T07:01:36;103461.22;;;-3.10;55.39
71344;BME280;59146;43.850;25.948;2023-02-10T07:04:02;103505.66;;;-2.88;55.75
71344;BME280;59146;43.850;25.948;2023-02-10T07:06:28;103499.41;;;-2.74;55.36
71344;BME280;59146;43.850;25.948;2023-02-10T07:08:53;103497.25;;;-2.65;55.66
71344;BME280;59146;43.850;25.948;2023-02-10T07:11:19;103455.88;;;-2.96;55.72
71344;BME280;59146;43.850;25.948;2023-02-10T07:13:44;103501.38;;;-2.25;55.04
71344;BME280;59146;43.850;25.948;2023-02-10T07:16:09;103458.34;;;-2.56;54.86
71344;BME280;59146;43.850;25.948;2023-02-10T07:18:39;103472.19;;;-2.92;56.76
71344;BME280;59146;43.850;25.948;2023-02-10T07:21:05;103476.34;;;-3.36;57.98
71344;BME280;59146;43.850;25.948;2023-02-10T07:23:30;103475.19;;;-3.61;58.98
71344;BME280;59146;43.850;25.948;2023-02-10T07:25:56;103484.16;;;-3.12;58.78
71344;BME280;59146;43.850;25.948;2023-02-10T07:28:21;103513.66;;;-3.39;59.52
71344;BME280;59146;43.850;25.948;2023-02-10T07:30:47;103503.41;;;-3.20;59.05
71344;BME280;59146;43.850;25.948;2023-02-10T07:33:12;103530.88;;;-3.54;60.35
71344;BME280;59146;43.850;25.948;2023-02-10T07:35:37;103505.59;;;-3.67;61.80
71344;BME280;59146;43.850;25.948;2023-02-10T07:38:03;103468.06;;;-3.68;61.28
71344;BME280;59146;43.850;25.948;2023-02-10T07:40:28;103454.13;;;-3.56;61.41
71344;BME280;59146;43.850;25.948;2023-02-10T07:42:55;103432.59;;;-4.18;61.97
71344;BME280;59146;43.850;25.948;2023-02-10T07:45:21;103485.63;;;-3.93;63.39
71344;BME280;59146;43.850;25.948;2023-02-10T07:47:47;103521.19;;;-3.61;63.02
71344;BME280;59146;43.850;25.948;2023-02-10T07:50:12;103445.59;;;-3.94;62.82
71344;BME280;59146;43.850;25.948;2023-02-10T07:52:38;103444.50;;;-3.99;63.18
71344;BME280;59146;43.850;25.948;2023-02-10T07:55:06;103510.50;;;-3.89;63.96
71344;BME280;59146;43.850;25.948;2023-02-10T07:57:32;103508.22;;;-4.03;65.07
71344;BME280;59146;43.850;25.948;2023-02-10T07:59:57;103506.34;;;-4.07;65.81
71344;BME280;59146;43.850;25.948;2023-02-10T08:02:22;103433.44;;;-4.37;65.68
71344;BME280;59146;43.850;25.948;2023-02-10T08:04:48;103501.22;;;-4.24;66.96
71344;BME280;59146;43.850;25.948;2023-02-10T08:07:13;103484.25;;;-4.24;66.50
71344;BME280;59146;43.850;25.948;2023-02-10T08:09:38;103393.75;;;-4.85;67.00
71344;BME280;59146;43.850;25.948;2023-02-10T08:12:04;103475.78;;;-4.23;66.53
71344;BME280;59146;43.850;25.948;2023-02-10T08:14:30;103482.22;;;-3.94;66.31
71344;BME280;59146;43.850;25.948;2023-02-10T08:16:56;103518.63;;;-3.61;66.73
71344;BME280;59146;43.850;25.948;2023-02-10T08:19:22;103423.69;;;-4.09;66.26
71344;BME280;59146;43.850;25.948;2023-02-10T08:21:48;103479.03;;;-3.71;67.26
71344;BME280;59146;43.850;25.948;2023-02-10T08:24:13;103477.91;;;-3.58;67.35
71344;BME280;59146;43.850;25.948;2023-02-10T08:26:39;103475.19;;;-3.23;67.33
71344;BME280;59146;43.850;25.948;2023-02-10T08:29:04;103486.84;;;-3.09;67.03
71344;BME280;59146;43.850;25.948;2023-02-10T08:31:30;103476.00;;;-3.03;66.73
71344;BME280;59146;43.850;25.948;2023-02-10T08:33:55;103321.22;;;-3.97;67.48
71344;BME280;59146;43.850;25.948;2023-02-10T08:36:21;103484.44;;;-3.06;68.38
71344;BME280;59146;43.850;25.948;2023-02-10T08:38:48;103493.41;;;-2.74;67.32
71344;BME280;59146;43.850;25.948;2023-02-10T08:41:14;103422.47;;;-2.99;67.42
71344;BME280;59146;43.850;25.948;2023-02-10T08:43:40;103457.03;;;-2.67;67.12
71344;BME280;59146;43.850;25.948;2023-02-10T08:46:05;103498.91;;;-2.45;67.01
71344;BME280;59146;43.850;25.948;2023-02-10T08:48:31;103471.94;;;-2.57;67.28
71344;BME280;59146;43.850;25.948;2023-02-10T08:50:57;103442.38;;;-2.71;68.64
71344;BME280;59146;43.850;25.948;2023-02-10T08:53:23;103466.56;;;-2.43;68.30
71344;BME280;59146;43.850;25.948;2023-02-10T08:56:01;103513.84;;;-2.12;67.71
71344;BME280;59146;43.850;25.948;2023-02-10T08:58:27;103445.56;;;-2.34;67.50
71344;BME280;59146;43.850;25.948;2023-02-10T09:00:53;103488.31;;;-1.89;67.97
71344;BME280;59146;43.850;25.948;2023-02-10T09:03:18;103493.97;;;-1.74;66.65
71344;BME280;59146;43.850;25.948;2023-02-10T09:05:44;103463.78;;;-2.04;67.02
71344;BME280;59146;43.850;25.948;2023-02-10T09:08:12;103516.22;;;-1.73;67.34
71344;BME280;59146;43.850;25.948;2023-02-10T09:10:39;103506.22;;;-1.43;66.60
71344;BME280;59146;43.850;25.948;2023-02-10T09:13:04;103496.16;;;-1.61;66.86
71344;BME280;59146;43.850;25.948;2023-02-10T09:15:29;103448.06;;;-1.91;66.86
71344;BME280;59146;43.850;25.948;2023-02-10T09:17:55;103510.13;;;-1.52;67.08
71344;BME280;59146;43.850;25.948;2023-02-10T09:20:20;103428.75;;;-2.05;67.25
71344;BME280;59146;43.850;25.948;2023-02-10T09:22:46;103516.00;;;-1.55;67.69
71344;BME280;59146;43.850;25.948;2023-02-10T09:25:20;103507.66;;;-1.51;67.75
71344;BME280;59146;43.850;25.948;2023-02-10T09:27:47;103472.94;;;-1.41;67.61
71344;BME280;59146;43.850;25.948;2023-02-10T09:30:13;103479.78;;;-1.17;66.79
71344;BME280;59146;43.850;25.948;2023-02-10T09:32:39;103522.25;;;-1.01;66.79
71344;BME280;59146;43.850;25.948;2023-02-10T09:35:05;103435.88;;;-1.26;66.75
71344;BME280;59146;43.850;25.948;2023-02-10T09:37:30;103488.88;;;-0.76;66.18
71344;BME280;59146;43.850;25.948;2023-02-10T09:39:56;103505.44;;;-0.66;65.95
71344;BME280;59146;43.850;25.948;2023-02-10T09:45:15;103497.09;;;-0.61;65.44
71344;BME280;59146;43.850;25.948;2023-02-10T09:47:51;103495.28;;;-0.63;65.92
71344;BME280;59146;43.850;25.948;2023-02-10T09:53:07;103421.16;;;-0.80;65.31
71344;BME280;59146;43.850;25.948;2023-02-10T09:55:56;103451.91;;;-0.54;64.56
71344;BME280;59146;43.850;25.948;2023-02-10T09:58:33;103478.59;;;-0.23;63.81
71344;BME280;59146;43.850;25.948;2023-02-10T10:03:38;103461.69;;;0.12;63.33
71344;BME280;59146;43.850;25.948;2023-02-10T10:06:14;103422.28;;;0.13;62.23
71344;BME280;59146;43.850;25.948;2023-02-10T10:11:46;103405.25;;;-0.41;62.74
71344;BME280;59146;43.850;25.948;2023-02-10T10:14:28;103458.22;;;-0.17;61.90
71344;BME280;59146;43.850;25.948;2023-02-10T10:17:03;103443.88;;;0.20;60.71
71344;BME280;59146;43.850;25.948;2023-02-10T10:22:53;103443.41;;;0.33;59.25
71344;BME280;59146;43.850;25.948;2023-02-10T10:30:48;103426.94;;;0.57;56.86
71344;BME280;59146;43.850;25.948;2023-02-10T10:35:53;103395.44;;;0.33;56.86
71344;BME280;59146;43.850;25.948;2023-02-10T10:38:25;103389.78;;;0.15;57.53
71344;BME280;59146;43.850;25.948;2023-02-10T10:40:54;103410.16;;;0.39;57.03
71344;BME280;59146;43.850;25.948;2023-02-10T10:43:27;103397.09;;;0.31;56.28
71344;BME280;59146;43.850;25.948;2023-02-10T10:45:59;103414.16;;;0.60;55.54
71344;BME280;59146;43.850;25.948;2023-02-10T10:48:28;103404.94;;;0.68;55.32
71344;BME280;59146;43.850;25.948;2023-02-10T10:50:59;103387.13;;;0.43;55.13
71344;BME280;59146;43.850;25.948;2023-02-10T10:53:43;103402.88;;;0.55;56.98
71344;BME280;59146;43.850;25.948;2023-02-10T10:57:04;103279.03;;;-0.25;55.72
71344;BME280;59146;43.850;25.948;2023-02-10T10:59:15;103315.75;;;0.02;55.88
71344;BME280;59146;43.850;25.948;2023-02-10T11:01:44;103331.25;;;0.05;56.90
71344;BME280;59146;43.850;25.948;2023-02-10T11:04:18;103329.84;;;0.16;55.09
71344;BME280;59146;43.850;25.948;2023-02-10T11:06:50;103317.81;;;0.15;55.43
71344;BME280;59146;43.850;25.948;2023-02-10T11:09:24;103376.63;;;0.67;55.59
71344;BME280;59146;43.850;25.948;2023-02-10T11:11:54;103319.47;;;0.46;55.24
71344;BME280;59146;43.850;25.948;2023-02-10T11:14:26;103297.13;;;0.43;55.24
71344;BME280;59146;43.850;25.948;2023-02-10T11:16:54;103375.88;;;0.72;55.19
71344;BME280;59146;43.850;25.948;2023-02-10T11:19:30;103302.63;;;0.24;54.78
71344;BME280;59146;43.850;25.948;2023-02-10T11:21:56;103340.38;;;0.59;54.42
71344;BME280;59146;43.850;25.948;2023-02-10T11:24:28;103363.75;;;0.67;55.68
71344;BME280;59146;43.850;25.948;2023-02-10T11:27:00;103368.19;;;0.74;56.41
71344;BME280;59146;43.850;25.948;2023-02-10T11:29:28;103335.47;;;0.68;56.48
71344;BME280;59146;43.850;25.948;2023-02-10T11:31:54;103275.63;;;0.07;55.25
71344;BME280;59146;43.850;25.948;2023-02-10T11:36:58;103256.72;;;-0.26;58.16
71344;BME280;59146;43.850;25.948;2023-02-10T11:39:35;103319.28;;;0.38;57.32
71344;BME280;59146;43.850;25.948;2023-02-10T11:44:34;103305.78;;;0.47;58.24
71344;BME280;59146;43.850;25.948;2023-02-10T11:47:03;103268.44;;;0.28;57.62
71344;BME280;59146;43.850;25.948;2023-02-10T11:49:29;103307.47;;;0.80;57.14
71344;BME280;59146;43.850;25.948;2023-02-10T11:52:00;103328.19;;;1.24;57.02
71344;BME280;59146;43.850;25.948;2023-02-10T11:54:27;103295.00;;;0.99;56.81
71344;BME280;59146;43.850;25.948;2023-02-10T12:05:54;103243.63;;;1.02;56.12
71344;BME280;59146;43.850;25.948;2023-02-10T12:11:02;103190.94;;;0.47;57.68
71344;BME280;59146;43.850;25.948;2023-02-10T12:19:39;103209.81;;;0.85;57.10
71344;BME280;59146;43.850;25.948;2023-02-10T12:21:43;103291.38;;;1.28;56.96
71344;BME280;59146;43.850;25.948;2023-02-10T12:30:07;103274.09;;;1.22;57.29
71344;BME280;59146;43.850;25.948;2023-02-10T12:41:52;103270.59;;;1.19;58.33
71344;BME280;59146;43.850;25.948;2023-02-10T12:49:29;103275.03;;;1.26;58.12
71344;BME280;59146;43.850;25.948;2023-02-10T12:52:19;103273.63;;;1.40;57.12
71344;BME280;59146;43.850;25.948;2023-02-10T12:55:02;103270.09;;;1.35;58.15
71344;BME280;59146;43.850;25.948;2023-02-10T12:58:20;103198.50;;;1.19;57.55
71344;BME280;59146;43.850;25.948;2023-02-10T13:02:57;103211.06;;;1.45;56.73
71344;BME280;59146;43.850;25.948;2023-02-10T13:05:45;103202.47;;;1.45;56.42
71344;BME280;59146;43.850;25.948;2023-02-10T13:08:21;103207.44;;;1.36;56.44
71344;BME280;59146;43.850;25.948;2023-02-10T13:10:51;103137.56;;;1.18;55.26
71344;BME280;59146;43.850;25.948;2023-02-10T13:13:23;103258.97;;;1.79;54.62
71344;BME280;59146;43.850;25.948;2023-02-10T13:16:18;103270.75;;;1.67;54.30
71344;BME280;59146;43.850;25.948;2023-02-10T13:18:53;103274.34;;;1.76;54.54
71344;BME280;59146;43.850;25.948;2023-02-10T13:24:21;103256.25;;;2.19;53.32
71344;BME280;59146;43.850;25.948;2023-02-10T13:30:06;103264.19;;;1.84;55.21
71344;BME280;59146;43.850;25.948;2023-02-10T13:35:24;103182.34;;;1.26;55.13
71344;BME280;59146;43.850;25.948;2023-02-10T13:37:54;103236.41;;;1.68;55.14
71344;BME280;59146;43.850;25.948;2023-02-10T13:40:24;103264.25;;;1.87;54.18
71344;BME280;59146;43.850;25.948;2023-02-10T13:42:53;103164.59;;;0.96;55.75
71344;BME280;59146;43.850;25.948;2023-02-10T13:45:22;103207.56;;;1.42;54.49
71344;BME280;59146;43.850;25.948;2023-02-10T13:48:03;103209.41;;;1.49;54.42
71344;BME280;59146;43.850;25.948;2023-02-10T13:50:30;103268.34;;;1.76;55.08
71344;BME280;59146;43.850;25.948;2023-02-10T13:55:36;103221.25;;;1.39;54.45
71344;BME280;59146;43.850;25.948;2023-02-10T14:00:50;103244.06;;;1.63;56.15
71344;BME280;59146;43.850;25.948;2023-02-10T14:03:23;103202.03;;;1.24;55.40
71344;BME280;59146;43.850;25.948;2023-02-10T14:08:43;103260.31;;;1.60;55.89
71344;BME280;59146;43.850;25.948;2023-02-10T14:13:41;103189.66;;;1.05;56.14
71344;BME280;59146;43.850;25.948;2023-02-10T14:18:40;103197.84;;;1.27;54.78
71344;BME280;59146;43.850;25.948;2023-02-10T14:21:11;103226.41;;;1.41;54.77
71344;BME280;59146;43.850;25.948;2023-02-10T14:23:37;103247.44;;;1.62;54.15
71344;BME280;59146;43.850;25.948;2023-02-10T14:26:51;103179.16;;;0.96;55.23
71344;BME280;59146;43.850;25.948;2023-02-10T14:28:57;103224.38;;;1.23;55.02
71344;BME280;59146;43.850;25.948;2023-02-10T14:31:35;103192.16;;;1.03;55.82
71344;BME280;59146;43.850;25.948;2023-02-10T14:34:05;103241.31;;;1.14;56.24
71344;BME280;59146;43.850;25.948;2023-02-10T14:36:31;103233.56;;;1.12;56.61
71344;BME280;59146;43.850;25.948;2023-02-10T14:38:59;103254.94;;;1.10;57.55